sensor_id;sensor_type;location;lat;lon;timestamp;pressure;altitude;pressure_sealevel;temperature
69420;BMP280;56612;52.030;113.524;2022-08-24T00:02:28;93006.97;;;13.36
69420;BMP280;56612;52.030;113.524;2022-08-24T00:05:32;92983.50;;;13.22
69420;BMP280;56612;52.030;113.524;2022-08-24T00:08:37;92990.88;;;13.21
69420;BMP280;56612;52.030;113.524;2022-08-24T00:11:41;92985.47;;;13.17
69420;BMP280;56612;52.030;113.524;2022-08-24T00:14:44;92991.50;;;13.18
69420;BMP280;56612;52.030;113.524;2022-08-24T00:17:50;92986.16;;;13.12
69420;BMP280;56612;52.030;113.524;2022-08-24T00:20:54;92984.09;;;13.04
69420;BMP280;56612;52.030;113.524;2022-08-24T00:23:58;92979.41;;;13.05
69420;BMP280;56612;52.030;113.524;2022-08-24T00:27:06;92986.78;;;13.00
69420;BMP280;56612;52.030;113.524;2022-08-24T00:30:12;92980.09;;;13.03
69420;BMP280;56612;52.030;113.524;2022-08-24T00:33:17;92985.47;;;13.07
69420;BMP280;56612;52.030;113.524;2022-08-24T00:36:22;92979.41;;;13.07
69420;BMP280;56612;52.030;113.524;2022-08-24T00:39:27;92983.44;;;13.08
69420;BMP280;56612;52.030;113.524;2022-08-24T00:42:31;92987.50;;;13.21
69420;BMP280;56612;52.030;113.524;2022-08-24T00:48:48;92986.84;;;13.59
69420;BMP280;56612;52.030;113.524;2022-08-24T00:55:12;92978.78;;;13.73
69420;BMP280;56612;52.030;113.524;2022-08-24T00:58:23;92973.41;;;13.87
69420;BMP280;56612;52.030;113.524;2022-08-24T01:01:28;92985.47;;;14.09
69420;BMP280;56612;52.030;113.524;2022-08-24T01:04:39;92984.72;;;14.30
69420;BMP280;56612;52.030;113.524;2022-08-24T01:07:46;92988.66;;;14.58
69420;BMP280;56612;52.030;113.524;2022-08-24T01:11:02;92992.66;;;14.63
69420;BMP280;56612;52.030;113.524;2022-08-24T01:14:06;92989.38;;;14.42
69420;BMP280;56612;52.030;113.524;2022-08-24T01:17:12;92990.16;;;14.10
69420;BMP280;56612;52.030;113.524;2022-08-24T01:20:44;92982.09;;;14.08
69420;BMP280;56612;52.030;113.524;2022-08-24T01:23:53;92992.84;;;13.94
69420;BMP280;56612;52.030;113.524;2022-08-24T01:26:58;92970.72;;;13.91
69420;BMP280;56612;52.030;113.524;2022-08-24T01:30:07;92981.41;;;14.14
69420;BMP280;56612;52.030;113.524;2022-08-24T01:33:22;92978.06;;;14.15
69420;BMP280;56612;52.030;113.524;2022-08-24T01:36:39;92980.75;;;14.09
69420;BMP280;56612;52.030;113.524;2022-08-24T01:39:45;92981.41;;;14.06
69420;BMP280;56612;52.030;113.524;2022-08-24T01:42:52;92980.75;;;14.07
69420;BMP280;56612;52.030;113.524;2022-08-24T01:45:56;92974.00;;;14.14
69420;BMP280;56612;52.030;113.524;2022-08-24T01:49:00;92970.66;;;14.16
69420;BMP280;56612;52.030;113.524;2022-08-24T01:52:06;92978.06;;;14.07
69420;BMP280;56612;52.030;113.524;2022-08-24T01:55:12;92983.41;;;14.25
69420;BMP280;56612;52.030;113.524;2022-08-24T01:58:21;92991.47;;;14.23
69420;BMP280;56612;52.030;113.524;2022-08-24T02:01:27;92978.06;;;14.07
69420;BMP280;56612;52.030;113.524;2022-08-24T02:04:34;92978.75;;;14.08
69420;BMP280;56612;52.030;113.524;2022-08-24T02:07:39;92979.41;;;14.16
69420;BMP280;56612;52.030;113.524;2022-08-24T02:10:46;92985.34;;;14.45
69420;BMP280;56612;52.030;113.524;2022-08-24T02:13:59;92975.19;;;14.64
69420;BMP280;56612;52.030;113.524;2022-08-24T02:17:05;92976.47;;;14.75
69420;BMP280;56612;52.030;113.524;2022-08-24T02:20:09;92969.06;;;14.75
69420;BMP280;56612;52.030;113.524;2022-08-24T02:23:13;92972.44;;;14.74
69420;BMP280;56612;52.030;113.524;2022-08-24T02:26:17;92973.66;;;14.99
69420;BMP280;56612;52.030;113.524;2022-08-24T02:29:21;92974.19;;;15.20
69420;BMP280;56612;52.030;113.524;2022-08-24T02:32:25;92964.81;;;15.15
69420;BMP280;56612;52.030;113.524;2022-08-24T02:35:29;92978.34;;;15.05
69420;BMP280;56612;52.030;113.524;2022-08-24T02:38:35;92970.94;;;15.01
69420;BMP280;56612;52.030;113.524;2022-08-24T02:41:42;92966.31;;;14.90
69420;BMP280;56612;52.030;113.524;2022-08-24T02:44:46;92962.41;;;14.64
69420;BMP280;56612;52.030;113.524;2022-08-24T02:47:51;92968.47;;;14.63
69420;BMP280;56612;52.030;113.524;2022-08-24T02:50:56;92962.41;;;14.64
69420;BMP280;56612;52.030;113.524;2022-08-24T02:54:03;92957.63;;;14.77
69420;BMP280;56612;52.030;113.524;2022-08-24T02:57:10;92965.69;;;14.79
69420;BMP280;56612;52.030;113.524;2022-08-24T03:00:17;92963.63;;;14.86
69420;BMP280;56612;52.030;113.524;2022-08-24T03:03:25;92955.38;;;15.14
69420;BMP280;56612;52.030;113.524;2022-08-24T03:06:29;92956.09;;;15.06
69420;BMP280;56612;52.030;113.524;2022-08-24T03:09:33;92950.84;;;14.90
69420;BMP280;56612;52.030;113.524;2022-08-24T03:12:38;92954.59;;;15.30
69420;BMP280;56612;52.030;113.524;2022-08-24T03:15:42;92942.75;;;15.76
69420;BMP280;56612;52.030;113.524;2022-08-24T03:18:48;92955.50;;;15.81
69420;BMP280;56612;52.030;113.524;2022-08-24T03:21:52;92953.63;;;16.31
69420;BMP280;56612;52.030;113.524;2022-08-24T03:24:56;92951.75;;;18.00
69420;BMP280;56612;52.030;113.524;2022-08-24T03:28:00;92944.91;;;18.38
69420;BMP280;56612;52.030;113.524;2022-08-24T03:31:11;92947.03;;;19.53
69420;BMP280;56612;52.030;113.524;2022-08-24T03:34:17;92933.63;;;17.92
69420;BMP280;56612;52.030;113.524;2022-08-24T03:37:22;92934.81;;;17.23
69420;BMP280;56612;52.030;113.524;2022-08-24T03:40:26;92925.47;;;17.94
69420;BMP280;56612;52.030;113.524;2022-08-24T03:43:31;92916.91;;;17.45
69420;BMP280;56612;52.030;113.524;2022-08-24T03:46:53;92911.38;;;17.12
69420;BMP280;56612;52.030;113.524;2022-08-24T03:49:59;92904.09;;;17.02
69420;BMP280;56612;52.030;113.524;2022-08-24T03:53:05;92910.28;;;18.12
69420;BMP280;56612;52.030;113.524;2022-08-24T03:56:10;92901.44;;;19.35
69420;BMP280;56612;52.030;113.524;2022-08-24T03:59:14;92904.28;;;19.55
69420;BMP280;56612;52.030;113.524;2022-08-24T04:02:25;92896.06;;;18.75
69420;BMP280;56612;52.030;113.524;2022-08-24T04:05:36;92889.91;;;18.15
69420;BMP280;56612;52.030;113.524;2022-08-24T04:08:41;92881.59;;;17.92
69420;BMP280;56612;52.030;113.524;2022-08-24T04:11:46;92876.09;;;18.31
69420;BMP280;56612;52.030;113.524;2022-08-24T04:14:56;92872.22;;;17.89
69420;BMP280;56612;52.030;113.524;2022-08-24T04:18:01;92865.44;;;17.53
69420;BMP280;56612;52.030;113.524;2022-08-24T04:21:06;92855.63;;;17.35
69420;BMP280;56612;52.030;113.524;2022-08-24T04:24:17;92847.09;;;17.20
69420;BMP280;56612;52.030;113.524;2022-08-24T04:27:22;92851.72;;;18.62
69420;BMP280;56612;52.030;113.524;2022-08-24T04:30:26;92840.94;;;19.92
69420;BMP280;56612;52.030;113.524;2022-08-24T04:33:44;92844.88;;;19.95
69420;BMP280;56612;52.030;113.524;2022-08-24T04:36:55;92849.72;;;18.89
69420;BMP280;56612;52.030;113.524;2022-08-24T04:40:01;92832.53;;;18.72
69420;BMP280;56612;52.030;113.524;2022-08-24T04:43:12;92838.00;;;19.50
69420;BMP280;56612;52.030;113.524;2022-08-24T04:46:22;92833.22;;;20.01
69420;BMP280;56612;52.030;113.524;2022-08-24T04:49:28;92830.00;;;19.19
69420;BMP280;56612;52.030;113.524;2022-08-24T04:52:32;92835.66;;;18.54
69420;BMP280;56612;52.030;113.524;2022-08-24T04:55:45;92835.88;;;19.55
69420;BMP280;56612;52.030;113.524;2022-08-24T04:58:53;92835.25;;;20.46
69420;BMP280;56612;52.030;113.524;2022-08-24T05:01:57;92833.75;;;20.51
69420;BMP280;56612;52.030;113.524;2022-08-24T05:05:00;92830.81;;;21.00
69420;BMP280;56612;52.030;113.524;2022-08-24T05:08:04;92825.63;;;21.52
69420;BMP280;56612;52.030;113.524;2022-08-24T05:11:08;92843.06;;;20.99
69420;BMP280;56612;52.030;113.524;2022-08-24T05:14:12;92835.50;;;19.92
69420;BMP280;56612;52.030;113.524;2022-08-24T05:17:16;92835.44;;;19.46
69420;BMP280;56612;52.030;113.524;2022-08-24T05:20:20;92821.47;;;19.09
69420;BMP280;56612;52.030;113.524;2022-08-24T05:23:26;92823.50;;;19.35
69420;BMP280;56612;52.030;113.524;2022-08-24T05:26:33;92832.31;;;19.09
69420;BMP280;56612;52.030;113.524;2022-08-24T05:29:37;92826.56;;;19.48
69420;BMP280;56612;52.030;113.524;2022-08-24T05:32:43;92834.19;;;19.66
69420;BMP280;56612;52.030;113.524;2022-08-24T05:35:47;92824.19;;;19.34
69420;BMP280;56612;52.030;113.524;2022-08-24T05:38:53;92813.72;;;19.71
69420;BMP280;56612;52.030;113.524;2022-08-24T05:41:58;92815.38;;;20.30
69420;BMP280;56612;52.030;113.524;2022-08-24T05:45:07;92815.25;;;20.99
69420;BMP280;56612;52.030;113.524;2022-08-24T05:48:11;92811.03;;;21.62
69420;BMP280;56612;52.030;113.524;2022-08-24T05:51:44;92805.72;;;21.77
69420;BMP280;56612;52.030;113.524;2022-08-24T05:54:51;92809.22;;;22.46
69420;BMP280;56612;52.030;113.524;2022-08-24T05:57:56;92814.03;;;22.79
69420;BMP280;56612;52.030;113.524;2022-08-24T06:01:05;92806.38;;;21.00
69420;BMP280;56612;52.030;113.524;2022-08-24T06:04:10;92799.75;;;19.85
69420;BMP280;56612;52.030;113.524;2022-08-24T06:07:15;92793.31;;;20.84
69420;BMP280;56612;52.030;113.524;2022-08-24T06:10:26;92791.81;;;23.98
69420;BMP280;56612;52.030;113.524;2022-08-24T06:13:39;92780.22;;;22.22
69420;BMP280;56612;52.030;113.524;2022-08-24T06:16:46;92769.22;;;20.74
69420;BMP280;56612;52.030;113.524;2022-08-24T06:19:51;92782.78;;;23.72
69420;BMP280;56612;52.030;113.524;2022-08-24T06:22:55;92777.78;;;24.35
69420;BMP280;56612;52.030;113.524;2022-08-24T06:26:06;92790.59;;;26.24
69420;BMP280;56612;52.030;113.524;2022-08-24T06:29:32;92774.19;;;25.73
69420;BMP280;56612;52.030;113.524;2022-08-24T06:33:00;92771.34;;;23.53
69420;BMP280;56612;52.030;113.524;2022-08-24T06:36:17;92772.50;;;22.62
69420;BMP280;56612;52.030;113.524;2022-08-24T06:39:24;92769.34;;;21.49
69420;BMP280;56612;52.030;113.524;2022-08-24T06:42:30;92756.34;;;20.93
69420;BMP280;56612;52.030;113.524;2022-08-24T06:45:34;92753.31;;;20.83
69420;BMP280;56612;52.030;113.524;2022-08-24T06:48:38;92755.94;;;21.99
69420;BMP280;56612;52.030;113.524;2022-08-24T06:51:42;92755.16;;;22.01
69420;BMP280;56612;52.030;113.524;2022-08-24T06:54:52;92754.41;;;21.29
69420;BMP280;56612;52.030;113.524;2022-08-24T06:57:56;92748.88;;;20.52
69420;BMP280;56612;52.030;113.524;2022-08-24T07:01:08;92745.59;;;20.27
69420;BMP280;56612;52.030;113.524;2022-08-24T07:04:13;92744.75;;;19.89
69420;BMP280;56612;52.030;113.524;2022-08-24T07:07:35;92752.22;;;19.66
69420;BMP280;56612;52.030;113.524;2022-08-24T07:10:40;92741.59;;;19.57
69420;BMP280;56612;52.030;113.524;2022-08-24T07:13:46;92740.88;;;19.59
69420;BMP280;56612;52.030;113.524;2022-08-24T07:16:50;92746.63;;;19.47
69420;BMP280;56612;52.030;113.524;2022-08-24T07:19:54;92740.84;;;19.36
69420;BMP280;56612;52.030;113.524;2022-08-24T07:23:18;92734.53;;;19.19
69420;BMP280;56612;52.030;113.524;2022-08-24T07:26:26;92735.31;;;19.15
69420;BMP280;56612;52.030;113.524;2022-08-24T07:29:31;92742.41;;;19.02
69420;BMP280;56612;52.030;113.524;2022-08-24T07:32:56;92751.94;;;19.01
69420;BMP280;56612;52.030;113.524;2022-08-24T07:36:01;92746.78;;;18.91
69420;BMP280;56612;52.030;113.524;2022-08-24T07:39:07;92736.75;;;18.59
69420;BMP280;56612;52.030;113.524;2022-08-24T07:42:11;92736.09;;;18.31
69420;BMP280;56612;52.030;113.524;2022-08-24T07:45:25;92744.88;;;18.32
69420;BMP280;56612;52.030;113.524;2022-08-24T07:48:30;92739.63;;;18.24
69420;BMP280;56612;52.030;113.524;2022-08-24T07:51:36;92737.66;;;18.49
69420;BMP280;56612;52.030;113.524;2022-08-24T07:54:45;92735.38;;;18.87
69420;BMP280;56612;52.030;113.524;2022-08-24T07:57:49;92723.03;;;19.18
69420;BMP280;56612;52.030;113.524;2022-08-24T08:00:53;92719.69;;;19.88
69420;BMP280;56612;52.030;113.524;2022-08-24T08:03:59;92725.63;;;20.78
69420;BMP280;56612;52.030;113.524;2022-08-24T08:07:03;92725.22;;;20.07
69420;BMP280;56612;52.030;113.524;2022-08-24T08:10:11;92714.75;;;19.72
69420;BMP280;56612;52.030;113.524;2022-08-24T08:13:14;92721.00;;;19.67
69420;BMP280;56612;52.030;113.524;2022-08-24T08:16:19;92732.09;;;19.58
69420;BMP280;56612;52.030;113.524;2022-08-24T08:19:24;92722.81;;;19.97
69420;BMP280;56612;52.030;113.524;2022-08-24T08:22:29;92736.75;;;22.53
69420;BMP280;56612;52.030;113.524;2022-08-24T08:26:18;92727.22;;;22.02
69420;BMP280;56612;52.030;113.524;2022-08-24T08:29:38;92751.03;;;20.27
69420;BMP280;56612;52.030;113.524;2022-08-24T08:32:43;92753.00;;;19.37
69420;BMP280;56612;52.030;113.524;2022-08-24T08:35:48;92765.19;;;18.58
69420;BMP280;56612;52.030;113.524;2022-08-24T08:38:52;92762.53;;;17.96
69420;BMP280;56612;52.030;113.524;2022-08-24T08:52:21;92737.03;;;16.84
69420;BMP280;56612;52.030;113.524;2022-08-24T08:55:35;92730.47;;;16.73
69420;BMP280;56612;52.030;113.524;2022-08-24T09:06:18;92729.91;;;16.68
69420;BMP280;56612;52.030;113.524;2022-08-24T09:09:40;92719.22;;;16.60
69420;BMP280;56612;52.030;113.524;2022-08-24T09:13:06;92714.09;;;16.46
69420;BMP280;56612;52.030;113.524;2022-08-24T09:16:22;92718.66;;;16.53
69420;BMP280;56612;52.030;113.524;2022-08-24T09:22:41;92729.81;;;17.79
69420;BMP280;56612;52.030;113.524;2022-08-24T09:26:08;92733.34;;;19.62
69420;BMP280;56612;52.030;113.524;2022-08-24T09:29:39;92718.72;;;21.93
69420;BMP280;56612;52.030;113.524;2022-08-24T09:36:24;92718.31;;;25.94
69420;BMP280;56612;52.030;113.524;2022-08-24T09:39:57;92721.66;;;28.44
69420;BMP280;56612;52.030;113.524;2022-08-24T09:50:22;92713.06;;;22.66
69420;BMP280;56612;52.030;113.524;2022-08-24T10:04:13;92711.88;;;25.36
69420;BMP280;56612;52.030;113.524;2022-08-24T10:07:40;92709.31;;;27.58
69420;BMP280;56612;52.030;113.524;2022-08-24T10:11:30;92689.44;;;28.53
69420;BMP280;56612;52.030;113.524;2022-08-24T10:15:03;92692.88;;;28.22
69420;BMP280;56612;52.030;113.524;2022-08-24T10:21:32;92689.16;;;22.52
69420;BMP280;56612;52.030;113.524;2022-08-24T10:31:17;92698.69;;;18.92
69420;BMP280;56612;52.030;113.524;2022-08-24T10:48:27;92707.78;;;19.54
69420;BMP280;56612;52.030;113.524;2022-08-24T10:51:51;92708.66;;;18.99
69420;BMP280;56612;52.030;113.524;2022-08-24T10:55:13;92712.88;;;18.40
69420;BMP280;56612;52.030;113.524;2022-08-24T10:58:39;92721.16;;;18.32
69420;BMP280;56612;52.030;113.524;2022-08-24T11:02:08;92719.66;;;18.11
69420;BMP280;56612;52.030;113.524;2022-08-24T11:05:33;92719.69;;;17.78
69420;BMP280;56612;52.030;113.524;2022-08-24T11:08:59;92716.06;;;17.58
69420;BMP280;56612;52.030;113.524;2022-08-24T11:12:26;92722.66;;;17.33
69420;BMP280;56612;52.030;113.524;2022-08-24T11:15:30;92730.13;;;16.93
69420;BMP280;56612;52.030;113.524;2022-08-24T11:18:52;92722.38;;;16.73
69420;BMP280;56612;52.030;113.524;2022-08-24T11:22:03;92721.56;;;16.41
69420;BMP280;56612;52.030;113.524;2022-08-24T11:28:38;92742.00;;;15.81
69420;BMP280;56612;52.030;113.524;2022-08-24T11:31:47;92729.50;;;15.55
69420;BMP280;56612;52.030;113.524;2022-08-24T11:34:54;92744.53;;;15.38
69420;BMP280;56612;52.030;113.524;2022-08-24T11:41:32;92752.06;;;15.25
69420;BMP280;56612;52.030;113.524;2022-08-24T11:44:39;92752.91;;;15.12
69420;BMP280;56612;52.030;113.524;2022-08-24T11:48:34;92755.75;;;14.93
69420;BMP280;56612;52.030;113.524;2022-08-24T11:54:48;92772.25;;;14.51
69420;BMP280;56612;52.030;113.524;2022-08-24T11:58:05;92763.03;;;14.19
69420;BMP280;56612;52.030;113.524;2022-08-24T12:01:21;92765.88;;;13.95
69420;BMP280;56612;52.030;113.524;2022-08-24T12:18:21;92784.91;;;13.34
69420;BMP280;56612;52.030;113.524;2022-08-24T12:21:32;92784.25;;;13.17
69420;BMP280;56612;52.030;113.524;2022-08-24T12:24:40;92788.28;;;13.16
69420;BMP280;56612;52.030;113.524;2022-08-24T12:27:46;92787.63;;;13.12
69420;BMP280;56612;52.030;113.524;2022-08-24T12:30:52;92848.59;;;13.60
69420;BMP280;56612;52.030;113.524;2022-08-24T12:34:00;92802.34;;;13.17
69420;BMP280;56612;52.030;113.524;2022-08-24T12:37:16;92800.38;;;13.09
69420;BMP280;56612;52.030;113.524;2022-08-24T12:40:39;92799.69;;;13.07
69420;BMP280;56612;52.030;113.524;2022-08-24T12:43:51;92801.03;;;13.08
69420;BMP280;56612;52.030;113.524;2022-08-24T12:46:56;92806.41;;;13.04
69420;BMP280;56612;52.030;113.524;2022-08-24T12:50:15;92807.75;;;13.03
69420;BMP280;56612;52.030;113.524;2022-08-24T12:53:47;92809.75;;;13.00
69420;BMP280;56612;52.030;113.524;2022-08-24T13:00:19;92810.44;;;12.76
69420;BMP280;56612;52.030;113.524;2022-08-24T13:03:39;92812.44;;;12.61
69420;BMP280;56612;52.030;113.524;2022-08-24T13:06:59;92817.09;;;12.47
69420;BMP280;56612;52.030;113.524;2022-08-24T13:14:15;92825.81;;;12.39
69420;BMP280;56612;52.030;113.524;2022-08-24T13:17:20;92823.78;;;12.32
69420;BMP280;56612;52.030;113.524;2022-08-24T13:23:31;92820.41;;;12.19
69420;BMP280;56612;52.030;113.524;2022-08-24T13:26:35;92819.69;;;12.12
69420;BMP280;56612;52.030;113.524;2022-08-24T13:29:43;92827.03;;;12.06
69420;BMP280;56612;52.030;113.524;2022-08-24T13:32:57;92823.06;;;12.13
69420;BMP280;56612;52.030;113.524;2022-08-24T13:39:43;92822.31;;;11.92
69420;BMP280;56612;52.030;113.524;2022-08-24T14:00:27;92818.22;;;11.79
69420;BMP280;56612;52.030;113.524;2022-08-24T14:07:33;92806.78;;;11.64
69420;BMP280;56612;52.030;113.524;2022-08-24T14:14:05;92804.09;;;11.60
69420;BMP280;56612;52.030;113.524;2022-08-24T14:18:08;92816.19;;;11.67
69420;BMP280;56612;52.030;113.524;2022-08-24T14:21:12;92815.50;;;11.71
69420;BMP280;56612;52.030;113.524;2022-08-24T14:24:39;92808.81;;;11.68
69420;BMP280;56612;52.030;113.524;2022-08-24T14:31:20;92805.41;;;11.57
69420;BMP280;56612;52.030;113.524;2022-08-24T14:51:21;92798.50;;;11.21
69420;BMP280;56612;52.030;113.524;2022-08-24T14:58:05;92806.59;;;11.32
69420;BMP280;56612;52.030;113.524;2022-08-24T15:04:44;92810.53;;;11.16
69420;BMP280;56612;52.030;113.524;2022-08-24T15:08:02;92806.50;;;11.15
69420;BMP280;56612;52.030;113.524;2022-08-24T15:11:21;92796.44;;;11.08
69420;BMP280;56612;52.030;113.524;2022-08-24T15:14:39;92799.16;;;11.16
69420;BMP280;56612;52.030;113.524;2022-08-24T15:21:40;92802.50;;;11.14
69420;BMP280;56612;52.030;113.524;2022-08-24T15:25:09;92811.06;;;11.03
69420;BMP280;56612;52.030;113.524;2022-08-24T15:28:25;92786.25;;;10.86
69420;BMP280;56612;52.030;113.524;2022-08-24T15:31:29;92802.28;;;10.84
69420;BMP280;56612;52.030;113.524;2022-08-24T15:34:39;92798.16;;;10.73
69420;BMP280;56612;52.030;113.524;2022-08-24T15:37:44;92796.03;;;10.59
69420;BMP280;56612;52.030;113.524;2022-08-24T15:41:15;92803.44;;;10.65
69420;BMP280;56612;52.030;113.524;2022-08-24T15:44:22;92794.09;;;10.68
69420;BMP280;56612;52.030;113.524;2022-08-24T15:47:33;92807.38;;;10.57
69420;BMP280;56612;52.030;113.524;2022-08-24T15:50:42;92804.06;;;10.61
69420;BMP280;56612;52.030;113.524;2022-08-24T15:53:46;92802.56;;;10.42
69420;BMP280;56612;52.030;113.524;2022-08-24T15:57:10;92803.81;;;10.37
69420;BMP280;56612;52.030;113.524;2022-08-24T16:00:34;92811.25;;;10.42
69420;BMP280;56612;52.030;113.524;2022-08-24T16:04:00;92805.16;;;10.38
69420;BMP280;56612;52.030;113.524;2022-08-24T16:07:04;92803.81;;;10.33
69420;BMP280;56612;52.030;113.524;2022-08-24T16:10:11;92806.50;;;10.37
69420;BMP280;56612;52.030;113.524;2022-08-24T16:16:37;92805.25;;;10.44
69420;BMP280;56612;52.030;113.524;2022-08-24T16:19:51;92799.81;;;10.34
69420;BMP280;56612;52.030;113.524;2022-08-24T16:22:59;92794.47;;;10.34
69420;BMP280;56612;52.030;113.524;2022-08-24T16:27:12;92794.56;;;10.42
69420;BMP280;56612;52.030;113.524;2022-08-24T16:29:56;92798.59;;;10.45
69420;BMP280;56612;52.030;113.524;2022-08-24T16:32:59;92795.31;;;10.52
69420;BMP280;56612;52.030;113.524;2022-08-24T16:36:11;92794.69;;;10.58
69420;BMP280;56612;52.030;113.524;2022-08-24T16:39:15;92793.38;;;10.61
69420;BMP280;56612;52.030;113.524;2022-08-24T16:42:23;92798.09;;;10.65
69420;BMP280;56612;52.030;113.524;2022-08-24T16:45:27;92792.66;;;10.52
69420;BMP280;56612;52.030;113.524;2022-08-24T16:48:38;92791.25;;;10.49
69420;BMP280;56612;52.030;113.524;2022-08-24T16:51:42;92798.56;;;10.43
69420;BMP280;56612;52.030;113.524;2022-08-24T16:54:48;92797.84;;;10.40
69420;BMP280;56612;52.030;113.524;2022-08-24T16:57:52;92797.91;;;10.42
69420;BMP280;56612;52.030;113.524;2022-08-24T17:00:56;92793.72;;;10.29
69420;BMP280;56612;52.030;113.524;2022-08-24T17:04:00;92780.91;;;10.11
69420;BMP280;56612;52.030;113.524;2022-08-24T17:07:05;92787.47;;;10.04
69420;BMP280;56612;52.030;113.524;2022-08-24T17:10:12;92774.06;;;9.98
69420;BMP280;56612;52.030;113.524;2022-08-24T17:13:16;92772.00;;;9.95
69420;BMP280;56612;52.030;113.524;2022-08-24T17:16:40;92763.34;;;9.96
69420;BMP280;56612;52.030;113.524;2022-08-24T17:19:46;92770.63;;;9.89
69420;BMP280;56612;52.030;113.524;2022-08-24T17:22:50;92771.34;;;9.96
69420;BMP280;56612;52.030;113.524;2022-08-24T17:25:53;92768.03;;;9.98
69420;BMP280;56612;52.030;113.524;2022-08-24T17:28:59;92772.69;;;9.95
69420;BMP280;56612;52.030;113.524;2022-08-24T17:32:04;92770.06;;;9.99
69420;BMP280;56612;52.030;113.524;2022-08-24T17:35:08;92771.34;;;9.96
69420;BMP280;56612;52.030;113.524;2022-08-24T17:38:12;92769.34;;;9.93
69420;BMP280;56612;52.030;113.524;2022-08-24T17:41:16;92759.84;;;9.79
69420;BMP280;56612;52.030;113.524;2022-08-24T17:44:24;92761.75;;;9.73
69420;BMP280;56612;52.030;113.524;2022-08-24T17:47:28;92745.66;;;9.65
69420;BMP280;56612;52.030;113.524;2022-08-24T17:50:31;92741.00;;;9.65
69420;BMP280;56612;52.030;113.524;2022-08-24T17:53:35;92736.34;;;9.66
69420;BMP280;56612;52.030;113.524;2022-08-24T17:56:38;92744.28;;;9.62
69420;BMP280;56612;52.030;113.524;2022-08-24T17:59:42;92740.19;;;9.54
69420;BMP280;56612;52.030;113.524;2022-08-24T18:02:46;92744.94;;;9.58
69420;BMP280;56612;52.030;113.524;2022-08-24T18:05:49;92748.31;;;9.65
69420;BMP280;56612;52.030;113.524;2022-08-24T18:08:53;92758.97;;;9.63
69420;BMP280;56612;52.030;113.524;2022-08-24T18:12:00;92759.66;;;9.63
69420;BMP280;56612;52.030;113.524;2022-08-24T18:15:04;92749.72;;;9.70
69420;BMP280;56612;52.030;113.524;2022-08-24T18:18:09;92747.69;;;9.68
69420;BMP280;56612;52.030;113.524;2022-08-24T18:21:13;92750.97;;;9.63
69420;BMP280;56612;52.030;113.524;2022-08-24T18:24:16;92749.41;;;9.45
69420;BMP280;56612;52.030;113.524;2022-08-24T18:27:26;92749.38;;;9.43
69420;BMP280;56612;52.030;113.524;2022-08-24T18:30:31;92753.28;;;9.36
69420;BMP280;56612;52.030;113.524;2022-08-24T18:33:35;92740.03;;;9.40
69420;BMP280;56612;52.030;113.524;2022-08-24T18:36:38;92744.69;;;9.40
69420;BMP280;56612;52.030;113.524;2022-08-24T18:39:42;92735.94;;;9.33
69420;BMP280;56612;52.030;113.524;2022-08-24T18:42:46;92735.31;;;9.37
69420;BMP280;56612;52.030;113.524;2022-08-24T18:45:50;92745.34;;;9.38
69420;BMP280;56612;52.030;113.524;2022-08-24T18:48:55;92739.94;;;9.34
69420;BMP280;56612;52.030;113.524;2022-08-24T18:51:59;92731.94;;;9.34
69420;BMP280;56612;52.030;113.524;2022-08-24T18:55:04;92740.03;;;9.40
69420;BMP280;56612;52.030;113.524;2022-08-24T18:58:08;92738.72;;;9.43
69420;BMP280;56612;52.030;113.524;2022-08-24T19:01:11;92745.47;;;9.48
69420;BMP280;56612;52.030;113.524;2022-08-24T19:04:17;92750.00;;;9.38
69420;BMP280;56612;52.030;113.524;2022-08-24T19:07:32;92736.03;;;9.41
69420;BMP280;56612;52.030;113.524;2022-08-24T19:10:36;92731.94;;;9.34
69420;BMP280;56612;52.030;113.524;2022-08-24T19:13:40;92731.22;;;9.28
69420;BMP280;56612;52.030;113.524;2022-08-24T19:16:44;92737.22;;;9.28
69420;BMP280;56612;52.030;113.524;2022-08-24T19:19:52;92727.06;;;9.16
69420;BMP280;56612;52.030;113.524;2022-08-24T19:23:02;92723.22;;;9.28
69420;BMP280;56612;52.030;113.524;2022-08-24T19:26:07;92729.16;;;9.26
69420;BMP280;56612;52.030;113.524;2022-08-24T19:29:11;92718.50;;;9.26
69420;BMP280;56612;52.030;113.524;2022-08-24T19:32:21;92724.59;;;9.33
69420;BMP280;56612;52.030;113.524;2022-08-24T19:35:25;92722.63;;;9.35
69420;BMP280;56612;52.030;113.524;2022-08-24T19:38:30;92723.28;;;9.36
69420;BMP280;56612;52.030;113.524;2022-08-24T19:41:34;92725.38;;;9.41
69420;BMP280;56612;52.030;113.524;2022-08-24T19:44:45;92726.81;;;9.50
69420;BMP280;56612;52.030;113.524;2022-08-24T19:48:07;92718.84;;;9.52
69420;BMP280;56612;52.030;113.524;2022-08-24T19:51:12;92720.19;;;9.53
69420;BMP280;56612;52.030;113.524;2022-08-24T19:54:17;92720.22;;;9.55
69420;BMP280;56612;52.030;113.524;2022-08-24T20:00:41;92719.50;;;9.49
69420;BMP280;56612;52.030;113.524;2022-08-24T20:03:51;92728.13;;;9.47
69420;BMP280;56612;52.030;113.524;2022-08-24T20:06:56;92735.50;;;9.49
69420;BMP280;56612;52.030;113.524;2022-08-24T20:10:00;92738.28;;;9.61
69420;BMP280;56612;52.030;113.524;2022-08-24T20:13:14;92733.66;;;9.64
69420;BMP280;56612;52.030;113.524;2022-08-24T20:16:20;92728.09;;;9.45
69420;BMP280;56612;52.030;113.524;2022-08-24T20:19:24;92724.63;;;9.37
69420;BMP280;56612;52.030;113.524;2022-08-24T20:22:29;92726.69;;;9.38
69420;BMP280;56612;52.030;113.524;2022-08-24T20:25:33;92722.69;;;9.41
69420;BMP280;56612;52.030;113.524;2022-08-24T20:28:46;92722.81;;;9.47
69420;BMP280;56612;52.030;113.524;2022-08-24T20:31:51;92722.06;;;9.43
69420;BMP280;56612;52.030;113.524;2022-08-24T20:34:58;92717.38;;;9.41
69420;BMP280;56612;52.030;113.524;2022-08-24T20:38:03;92717.25;;;9.31